Time;durP1;ratioP1;P1;durP2;ratioP2;P2;SDS_P1;SDS_P2;PMS_P1;PMS_P2;Temp;Humidity;BMP_temperature;BMP_pressure;BME280_temperature;BME280_humidity;BME280_pressure;Samples;Min_cycle;Max_cycle;Signal;HPM_P1;HPM_P2
2022/11/28 00:01:35;;;;;;;6.47;5.30;;;8.30;99.90;;;;;;5043093;28;20033;-39
2022/11/28 00:04:01;;;;;;;5.40;4.60;;;8.30;99.90;;;;;;5043435;28;20032;-41
2022/11/28 00:06:27;;;;;;;6.50;5.22;;;8.30;99.90;;;;;;5043708;28;20029;-40
2022/11/28 00:08:53;;;;;;;6.03;4.63;;;8.30;99.90;;;;;;5043241;28;20086;-41
2022/11/28 00:11:19;;;;;;;5.70;4.93;;;8.30;99.90;;;;;;5043481;28;20460;-41
2022/11/28 00:13:45;;;;;;;6.05;5.18;;;8.30;99.90;;;;;;5043477;28;20044;-40
2022/11/28 00:16:22;;;;;;;7.88;5.20;;;8.30;99.90;;;;;;5043027;28;20028;-41
2022/11/28 00:18:53;;;;;;;6.32;5.28;;;8.30;99.90;;;;;;5043898;28;20110;-41
2022/11/28 00:21:19;;;;;;;6.22;5.28;;;8.30;99.90;;;;;;5042922;28;20031;-40
2022/11/28 00:23:46;;;;;;;5.72;4.53;;;8.30;99.90;;;;;;5043112;28;20037;-42
2022/11/28 00:26:19;;;;;;;6.03;4.85;;;8.30;99.90;;;;;;5043035;28;20811;-41
2022/11/28 00:28:48;;;;;;;6.35;5.45;;;8.30;99.90;;;;;;5023040;28;20026;-39
2022/11/28 00:31:19;;;;;;;7.45;5.45;;;8.30;99.90;;;;;;5037627;28;20219;-41
2022/11/28 00:33:45;;;;;;;6.03;5.15;;;8.40;99.90;;;;;;5043899;28;20064;-39
2022/11/28 00:36:12;;;;;;;7.15;5.75;;;8.40;99.90;;;;;;5042856;28;20817;-40
2022/11/28 00:38:38;;;;;;;6.75;5.35;;;8.40;99.90;;;;;;5042217;28;20492;-40
2022/11/28 00:41:13;;;;;;;6.05;4.90;;;8.40;99.90;;;;;;5043449;28;20017;-41
2022/11/28 00:43:40;;;;;;;7.93;5.65;;;8.40;99.90;;;;;;5042724;28;20566;-41
2022/11/28 00:46:06;;;;;;;5.28;4.78;;;8.40;99.90;;;;;;5042685;28;20547;-42
2022/11/28 00:48:33;;;;;;;5.32;4.35;;;8.40;99.90;;;;;;5043816;28;20024;-41
2022/11/28 00:51:15;;;;;;;4.68;4.10;;;8.40;99.90;;;;;;5042581;28;20067;-42
2022/11/28 00:53:43;;;;;;;5.50;4.20;;;8.50;99.90;;;;;;5043554;28;20082;-44
2022/11/28 00:56:11;;;;;;;4.85;4.20;;;8.50;99.90;;;;;;5043048;28;20013;-41
2022/11/28 00:58:37;;;;;;;5.10;4.40;;;8.50;99.90;;;;;;5042904;28;20167;-41
2022/11/28 01:01:11;;;;;;;6.00;4.10;;;8.50;99.90;;;;;;5043031;28;20106;-41
2022/11/28 01:03:38;;;;;;;8.07;4.50;;;8.50;99.90;;;;;;5032633;28;20032;-42
2022/11/28 01:06:03;;;;;;;4.57;3.67;;;8.50;99.90;;;;;;5042578;28;20074;-41
2022/11/28 01:08:29;;;;;;;5.72;4.53;;;8.50;99.90;;;;;;5043925;28;20017;-38
2022/11/28 01:10:55;;;;;;;7.30;5.22;;;8.50;99.90;;;;;;5060734;28;20384;-42
2022/11/28 01:13:20;;;;;;;5.35;4.63;;;8.50;99.90;;;;;;5042704;28;20102;-42
2022/11/28 01:15:46;;;;;;;5.43;4.22;;;8.50;99.90;;;;;;5043127;28;20086;-41
2022/11/28 01:18:11;;;;;;;6.43;4.30;;;8.60;99.90;;;;;;5042134;28;20028;-39
2022/11/28 01:20:37;;;;;;;7.68;4.43;;;8.60;99.90;;;;;;5042189;28;20043;-42
2022/11/28 01:23:03;;;;;;;5.68;4.68;;;8.60;99.90;;;;;;5042142;28;20037;-42
2022/11/28 01:25:29;;;;;;;6.18;4.50;;;8.60;99.90;;;;;;5042340;28;20021;-42
2022/11/28 01:27:54;;;;;;;6.15;4.80;;;8.70;99.90;;;;;;5042328;28;20043;-41
2022/11/28 01:30:20;;;;;;;4.70;4.05;;;8.70;99.90;;;;;;5042707;28;20021;-40
2022/11/28 01:32:45;;;;;;;4.82;3.90;;;8.70;99.90;;;;;;5041129;28;20028;-42
2022/11/28 01:35:11;;;;;;;4.50;3.97;;;8.70;99.90;;;;;;5042215;28;20017;-41
2022/11/28 01:37:37;;;;;;;5.20;4.03;;;8.80;99.90;;;;;;5041474;28;20451;-41
2022/11/28 01:40:03;;;;;;;6.13;4.03;;;8.80;99.90;;;;;;5041834;28;20094;-41
2022/11/28 01:42:29;;;;;;;6.90;4.38;;;8.80;99.90;;;;;;5042416;28;20115;-44
2022/11/28 01:44:54;;;;;;;6.35;4.35;;;8.90;99.90;;;;;;5041860;28;20119;-40
2022/11/28 01:47:26;;;;;;;5.97;3.88;;;8.90;99.90;;;;;;5041495;28;20123;-38
2022/11/28 01:49:53;;;;;;;4.47;3.58;;;8.90;99.90;;;;;;5041696;28;20040;-41
2022/11/28 01:52:20;;;;;;;4.40;4.00;;;8.90;99.90;;;;;;5042023;28;20056;-42
2022/11/28 01:54:51;;;;;;;4.78;3.75;;;8.90;99.90;;;;;;5041076;28;20021;-41
2022/11/28 01:57:21;;;;;;;5.07;4.15;;;9.00;99.90;;;;;;5042109;28;20029;-38
2022/11/28 01:59:54;;;;;;;4.80;3.92;;;9.00;99.90;;;;;;5042121;28;20025;-40
2022/11/28 02:02:27;;;;;;;4.30;3.90;;;9.00;99.90;;;;;;5041802;28;20025;-39
2022/11/28 02:04:53;;;;;;;5.57;4.15;;;9.00;99.90;;;;;;5040832;28;20427;-40
2022/11/28 02:07:19;;;;;;;4.70;3.65;;;9.00;99.90;;;;;;5030351;28;20080;-40
2022/11/28 02:09:45;;;;;;;4.20;3.80;;;9.00;99.90;;;;;;5038408;28;20465;-42
2022/11/28 02:12:45;;;;;;;3.58;3.22;;;9.10;99.90;;;;;;5041680;28;20070;-42
2022/11/28 02:15:43;;;;;;;4.95;4.13;;;9.00;99.90;;;;;;5040325;28;20505;-41
2022/11/28 02:18:36;;;;;;;6.20;4.40;;;9.10;99.90;;;;;;5028811;28;20033;-40
2022/11/28 02:21:22;;;;;;;;;;;9.00;99.90;;;;;;5042036;28;20119;-42
2022/11/28 02:24:04;;;;;;;5.47;4.40;;;9.00;99.90;;;;;;5041581;28;19923;-43
2022/11/28 02:27:10;;;;;;;5.43;4.35;;;9.00;99.90;;;;;;5032827;28;20086;-41
2022/11/28 02:30:11;;;;;;;4.95;3.50;;;9.00;99.90;;;;;;5027687;28;20029;-42
2022/11/28 02:32:57;;;;;;;5.18;3.88;;;9.00;99.90;;;;;;5041964;28;20404;-40
2022/11/28 02:35:32;;;;;;;5.07;3.72;;;9.00;99.90;;;;;;5041430;28;20067;-42
2022/11/28 02:38:24;;;;;;;4.65;3.75;;;9.00;99.90;;;;;;5040729;28;20036;-40
2022/11/28 02:40:49;;;;;;;4.07;3.63;;;9.00;99.90;;;;;;5040845;28;20481;-41
2022/11/28 02:43:23;;;;;;;5.22;3.85;;;8.90;99.90;;;;;;5041268;28;20186;-40
2022/11/28 02:46:04;;;;;;;4.05;3.45;;;8.90;99.90;;;;;;5044884;28;20041;-41
2022/11/28 02:48:48;;;;;;;4.72;3.75;;;8.90;99.90;;;;;;5026217;28;20042;-41
2022/11/28 02:51:42;;;;;;;4.50;3.58;;;8.90;99.90;;;;;;5042186;28;20037;-41
2022/11/28 02:54:12;;;;;;;4.68;4.03;;;8.90;99.90;;;;;;5045217;28;20032;-41
2022/11/28 02:56:37;;;;;;;3.95;3.33;;;8.90;99.90;;;;;;5045401;28;20028;-41
2022/11/28 02:59:03;;;;;;;4.40;3.92;;;8.90;99.90;;;;;;5045089;28;20029;-40
2022/11/28 03:01:36;;;;;;;6.05;4.18;;;8.90;99.90;;;;;;5045330;28;20017;-41
2022/11/28 03:04:11;;;;;;;4.85;4.30;;;8.80;99.90;;;;;;5044193;28;20040;-42
2022/11/28 03:06:52;;;;;;;4.90;4.25;;;8.80;99.90;;;;;;5044761;28;20836;-40
2022/11/28 03:09:35;;;;;;;4.90;4.40;;;8.80;99.90;;;;;;5044705;28;20044;-40
2022/11/28 03:12:23;;;;;;;5.38;4.70;;;8.90;99.90;;;;;;5042327;28;20064;-40
2022/11/28 03:14:54;;;;;;;5.78;4.82;;;8.80;99.90;;;;;;5044709;28;20030;-40
2022/11/28 03:17:27;;;;;;;7.30;4.78;;;8.80;99.90;;;;;;5044566;28;20025;-42
2022/11/28 03:20:17;;;;;;;5.47;4.60;;;8.80;99.90;;;;;;5044077;28;20036;-40
2022/11/28 03:23:19;;;;;;;6.30;4.28;;;8.80;99.90;;;;;;5044247;28;20064;-42
2022/11/28 03:25:54;;;;;;;5.50;4.20;;;8.80;99.90;;;;;;5040336;28;20055;-41
2022/11/28 03:28:30;;;;;;;4.78;4.28;;;8.80;99.90;;;;;;5043850;28;20060;-40
2022/11/28 03:31:11;;;;;;;4.90;4.32;;;8.80;99.90;;;;;;5044466;28;20053;-40
2022/11/28 03:33:40;;;;;;;5.40;4.10;;;8.80;99.90;;;;;;5033430;28;20052;-41
2022/11/28 03:36:13;;;;;;;5.28;4.40;;;8.80;99.90;;;;;;5043944;28;20076;-39
2022/11/28 03:38:41;;;;;;;;;;;8.80;99.90;;;;;;5044786;28;20037;-38
2022/11/28 03:41:13;;;;;;;3.97;3.20;;;8.80;99.90;;;;;;5043263;28;19913;-39
2022/11/28 03:43:45;;;;;;;6.03;4.15;;;8.80;99.90;;;;;;5044163;28;20037;-40
2022/11/28 03:46:14;;;;;;;4.13;3.65;;;8.80;99.90;;;;;;5043456;28;20036;-40
2022/11/28 03:48:54;;;;;;;5.20;3.60;;;8.80;99.90;;;;;;5044258;28;20044;-40
2022/11/28 03:51:47;;;;;;;4.50;3.60;;;8.90;99.90;;;;;;5044363;28;20021;-40
2022/11/28 03:54:20;;;;;;;6.13;3.85;;;8.90;99.90;;;;;;5032644;28;20083;-41
2022/11/28 03:57:05;;;;;;;3.80;3.50;;;8.90;99.90;;;;;;5043182;28;20239;-41
2022/11/28 03:59:33;;;;;;;4.03;3.42;;;8.90;99.90;;;;;;5034306;28;20060;-41
2022/11/28 04:02:02;;;;;;;4.43;4.03;;;8.90;99.90;;;;;;5043524;28;20017;-40
2022/11/28 04:04:51;;;;;;;5.05;3.90;;;8.90;99.90;;;;;;5044003;28;20037;-40
2022/11/28 04:07:39;;;;;;;5.25;4.10;;;8.90;99.90;;;;;;5043313;28;20036;-41
2022/11/28 04:10:19;;;;;;;4.70;4.10;;;8.90;99.90;;;;;;5036589;28;20029;-40
2022/11/28 04:13:16;;;;;;;5.22;4.18;;;8.90;99.90;;;;;;5044870;28;20028;-43
2022/11/28 04:16:26;;;;;;;4.70;4.22;;;8.90;99.90;;;;;;5033803;28;20601;-41
2022/11/28 04:19:15;;;;;;;4.18;3.78;;;8.90;99.90;;;;;;5044222;28;20064;-42
2022/11/28 04:21:54;;;;;;;6.18;4.80;;;8.90;99.90;;;;;;5023857;28;20049;-41
2022/11/28 04:24:36;;;;;;;5.97;5.13;;;8.90;99.90;;;;;;5041634;28;20746;-40
2022/11/28 04:27:05;;;;;;;5.90;5.17;;;8.90;99.90;;;;;;5043786;28;20152;-41
2022/11/28 04:29:39;;;;;;;5.78;5.18;;;8.90;99.90;;;;;;5042528;28;20028;-41
2022/11/28 04:32:06;;;;;;;6.32;4.78;;;8.90;99.90;;;;;;5043955;28;20720;-42
2022/11/28 04:34:35;;;;;;;4.82;4.32;;;8.90;99.90;;;;;;5043607;28;20021;-40
2022/11/28 04:37:02;;;;;;;5.03;4.40;;;8.90;99.90;;;;;;5041985;28;20158;-41
2022/11/28 04:39:30;;;;;;;4.88;4.38;;;8.90;99.90;;;;;;5043518;28;20332;-41
2022/11/28 04:42:14;;;;;;;5.43;4.50;;;8.90;99.90;;;;;;5043540;28;20036;-42
2022/11/28 04:44:54;;;;;;;4.80;4.30;;;8.90;99.90;;;;;;5043315;28;20103;-41
2022/11/28 04:47:20;;;;;;;4.85;4.35;;;8.90;99.90;;;;;;5024101;28;20048;-41
2022/11/28 04:49:45;;;;;;;6.75;4.90;;;8.90;99.90;;;;;;5036911;28;20889;-41
2022/11/28 04:52:14;;;;;;;6.03;5.07;;;8.90;99.90;;;;;;5043310;28;20021;-42
2022/11/28 04:55:02;;;;;;;4.45;4.05;;;9.00;99.90;;;;;;5043047;28;20017;-39
2022/11/28 04:57:44;;;;;;;4.18;3.78;;;8.90;99.90;;;;;;5042561;28;20025;-40
2022/11/28 05:00:13;;;;;;;4.00;3.53;;;9.00;99.90;;;;;;5043056;28;20363;-39
2022/11/28 05:02:41;;;;;;;4.38;3.97;;;8.90;99.90;;;;;;5043650;28;20032;-41
2022/11/28 05:05:14;;;;;;;4.80;3.70;;;8.90;99.90;;;;;;5041620;28;20125;-41
2022/11/28 05:07:40;;;;;;;3.80;3.15;;;8.90;99.90;;;;;;5041421;28;20632;-41
2022/11/28 05:10:06;;;;;;;3.92;3.55;;;8.90;99.90;;;;;;5042568;28;20013;-40
2022/11/28 05:12:32;;;;;;;4.75;4.05;;;9.00;99.90;;;;;;5042624;28;20024;-42
2022/11/28 05:14:58;;;;;;;4.47;4.00;;;9.00;99.90;;;;;;5043002;28;20055;-39
2022/11/28 05:17:23;;;;;;;4.03;3.63;;;9.00;99.90;;;;;;5042817;28;20812;-40
2022/11/28 05:19:49;;;;;;;5.25;3.70;;;9.00;99.90;;;;;;5041191;28;20017;-41
2022/11/28 05:22:14;;;;;;;4.05;3.65;;;9.00;99.90;;;;;;5042073;28;20631;-42
2022/11/28 05:24:40;;;;;;;3.05;2.75;;;9.00;99.90;;;;;;5041373;28;20027;-41
2022/11/28 05:27:06;;;;;;;3.78;3.42;;;9.00;99.90;;;;;;5042556;28;20033;-41
2022/11/28 05:29:32;;;;;;;3.53;3.22;;;9.00;99.90;;;;;;5042362;28;20032;-40
2022/11/28 05:31:57;;;;;;;3.25;2.95;;;9.00;99.90;;;;;;5041553;28;20025;-41
2022/11/28 05:34:23;;;;;;;3.20;2.90;;;9.00;99.90;;;;;;5043199;28;20029;-40
2022/11/28 05:36:49;;;;;;;3.83;3.42;;;9.00;99.90;;;;;;5042109;28;20102;-40
2022/11/28 05:39:14;;;;;;;3.75;3.45;;;9.00;99.90;;;;;;5041696;28;20674;-40
2022/11/28 05:41:40;;;;;;;3.30;3.00;;;9.00;99.90;;;;;;5042399;28;20499;-40
2022/11/28 05:44:05;;;;;;;3.90;3.40;;;9.00;99.90;;;;;;5042857;28;20017;-40
2022/11/28 05:46:31;;;;;;;3.70;3.40;;;9.00;99.90;;;;;;5042219;28;20736;-41
2022/11/28 05:48:57;;;;;;;4.72;3.45;;;9.00;99.90;;;;;;5041820;28;20473;-40
2022/11/28 05:51:23;;;;;;;3.17;2.88;;;9.00;99.90;;;;;;5042390;28;20075;-39
2022/11/28 05:53:48;;;;;;;3.60;3.30;;;9.00;99.90;;;;;;5041065;28;20092;-41
2022/11/28 05:56:17;;;;;;;3.00;2.75;;;9.00;99.90;;;;;;5042083;28;20013;-40
2022/11/28 05:58:44;;;;;;;2.85;2.65;;;9.00;99.90;;;;;;5042515;28;20021;-42
2022/11/28 06:01:13;;;;;;;3.15;2.85;;;9.00;99.90;;;;;;5042133;28;20029;-41
2022/11/28 06:03:40;;;;;;;3.83;3.53;;;9.00;99.90;;;;;;5041921;28;20503;-41
2022/11/28 06:06:18;;;;;;;3.45;3.03;;;9.00;99.90;;;;;;5041723;28;20033;-40
2022/11/28 06:08:44;;;;;;;3.00;2.60;;;9.00;99.90;;;;;;5030163;28;20079;-42
2022/11/28 06:11:13;;;;;;;3.08;2.83;;;9.00;99.90;;;;;;5042124;28;20029;-41
2022/11/28 06:13:39;;;;;;;2.85;2.65;;;9.00;99.90;;;;;;5041829;28;20115;-41
2022/11/28 06:16:09;;;;;;;2.97;2.70;;;9.00;99.90;;;;;;5040765;28;20082;-42
2022/11/28 06:18:35;;;;;;;3.08;2.78;;;9.00;99.90;;;;;;5040774;28;20037;-42
2022/11/28 06:21:03;;;;;;;3.58;2.85;;;9.00;99.90;;;;;;5041817;28;20025;-40
2022/11/28 06:23:28;;;;;;;3.13;2.83;;;9.00;99.90;;;;;;5042468;28;20384;-40
2022/11/28 06:25:54;;;;;;;3.90;3.50;;;9.00;99.90;;;;;;5041452;28;20067;-39
2022/11/28 06:28:19;;;;;;;3.55;3.25;;;9.00;99.90;;;;;;5040778;28;20115;-40
2022/11/28 06:30:45;;;;;;;3.63;2.90;;;9.00;99.90;;;;;;5040039;28;20044;-39
2022/11/28 06:33:10;;;;;;;3.17;2.88;;;9.00;99.90;;;;;;5039893;28;20025;-41
2022/11/28 06:35:36;;;;;;;4.18;3.13;;;9.00;99.90;;;;;;5039481;28;20370;-39
2022/11/28 06:38:01;;;;;;;3.42;3.13;;;9.00;99.90;;;;;;5040379;28;20028;-41
2022/11/28 06:40:27;;;;;;;3.20;2.90;;;9.00;99.90;;;;;;5041328;28;20040;-41
2022/11/28 06:42:52;;;;;;;3.00;2.70;;;9.00;99.90;;;;;;5039473;28;20448;-41
2022/11/28 06:45:18;;;;;;;3.78;2.92;;;9.00;99.90;;;;;;5040879;28;20064;-41
2022/11/28 06:47:43;;;;;;;3.08;2.53;;;9.00;99.90;;;;;;5040131;28;20035;-41
2022/11/28 06:50:09;;;;;;;3.30;3.00;;;9.00;99.90;;;;;;5040242;28;20368;-41
2022/11/28 06:52:35;;;;;;;3.20;2.90;;;9.00;99.90;;;;;;5040689;28;20140;-40
2022/11/28 06:55:00;;;;;;;3.22;2.92;;;9.00;99.90;;;;;;5039632;28;20025;-42
2022/11/28 06:57:26;;;;;;;3.00;2.80;;;9.00;99.90;;;;;;5039445;28;20042;-39
2022/11/28 06:59:52;;;;;;;2.95;2.75;;;9.00;99.90;;;;;;5040553;28;20779;-41
2022/11/28 07:02:17;;;;;;;2.80;2.60;;;9.00;99.90;;;;;;5040746;28;20029;-38
2022/11/28 07:04:43;;;;;;;3.42;2.85;;;9.00;99.90;;;;;;5039908;28;20017;-41
2022/11/28 07:07:08;;;;;;;3.28;2.97;;;9.00;99.90;;;;;;5040702;28;20033;-41
2022/11/28 07:09:34;;;;;;;3.00;2.70;;;9.10;99.90;;;;;;5039763;28;20017;-41
2022/11/28 07:11:59;;;;;;;3.10;2.90;;;9.00;99.90;;;;;;5039859;28;20032;-41
2022/11/28 07:14:25;;;;;;;3.88;3.35;;;9.10;99.90;;;;;;5040751;28;20025;-41
2022/11/28 07:16:50;;;;;;;3.42;3.05;;;9.10;99.90;;;;;;5040338;28;20021;-41
2022/11/28 07:19:21;;;;;;;2.80;2.60;;;9.10;99.90;;;;;;5039839;28;20443;-40
2022/11/28 07:21:47;;;;;;;3.53;3.22;;;9.10;99.90;;;;;;5040601;28;20184;-40
2022/11/28 07:24:13;;;;;;;3.50;3.20;;;9.10;99.90;;;;;;5039608;28;20056;-41
2022/11/28 07:26:39;;;;;;;3.83;3.53;;;9.10;99.90;;;;;;5040815;28;20119;-41
2022/11/28 07:29:06;;;;;;;3.45;3.15;;;9.10;99.90;;;;;;5040961;28;20074;-43
2022/11/28 07:31:32;;;;;;;3.55;3.20;;;9.10;99.90;;;;;;5040364;28;20041;-34
2022/11/28 07:34:00;;;;;;;4.07;3.67;;;9.10;99.90;;;;;;5043871;28;20025;-41
2022/11/28 07:36:27;;;;;;;3.47;3.13;;;9.10;99.90;;;;;;5044435;28;20053;-41
2022/11/28 07:38:58;;;;;;;3.80;3.45;;;9.10;99.90;;;;;;5044312;28;20323;-41
2022/11/28 07:41:24;;;;;;;3.67;3.38;;;9.10;99.90;;;;;;5044429;28;20372;-40
2022/11/28 07:43:53;;;;;;;6.13;5.53;;;9.10;99.90;;;;;;5044250;28;20028;-41
2022/11/28 07:46:19;;;;;;;5.07;4.30;;;9.10;99.90;;;;;;5043357;28;20028;-41
2022/11/28 07:48:46;;;;;;;4.15;3.85;;;9.10;99.90;;;;;;5044148;28;20036;-40
2022/11/28 07:51:18;;;;;;;4.90;4.40;;;9.10;99.90;;;;;;5043359;28;20452;-40
2022/11/28 07:53:44;;;;;;;4.38;3.97;;;9.10;99.90;;;;;;5043145;28;20520;-40
2022/11/28 07:56:14;;;;;;;4.07;3.78;;;9.10;99.90;;;;;;5043305;28;20037;-41
2022/11/28 07:58:41;;;;;;;5.03;4.03;;;9.10;99.90;;;;;;5044138;28;20099;-41
2022/11/28 08:01:12;;;;;;;4.93;4.30;;;9.10;99.90;;;;;;5043015;28;20818;-42
2022/11/28 08:03:37;;;;;;;3.88;3.58;;;9.10;99.90;;;;;;5043549;28;20167;-41
2022/11/28 08:06:04;;;;;;;4.32;4.00;;;9.10;99.90;;;;;;5042746;28;20531;-41
2022/11/28 08:08:29;;;;;;;3.55;3.25;;;9.20;99.90;;;;;;5042942;28;20021;-41
2022/11/28 08:10:59;;;;;;;3.55;3.22;;;9.20;99.90;;;;;;5043020;28;20039;-40
2022/11/28 08:13:26;;;;;;;4.10;3.80;;;9.20;99.90;;;;;;5042838;28;20053;-41
2022/11/28 08:15:52;;;;;;;4.30;3.90;;;9.20;99.90;;;;;;5044267;28;20025;-41
2022/11/28 08:18:24;;;;;;;4.03;3.63;;;9.20;99.90;;;;;;5043692;28;20017;-40
2022/11/28 08:20:50;;;;;;;4.88;3.85;;;9.20;99.90;;;;;;5041652;28;20095;-41
2022/11/28 08:23:15;;;;;;;4.28;3.88;;;9.20;99.90;;;;;;5042689;28;20613;-39
2022/11/28 08:25:41;;;;;;;4.35;4.00;;;9.20;99.90;;;;;;5041985;28;20033;-41
2022/11/28 08:28:06;;;;;;;4.75;4.32;;;9.20;99.90;;;;;;5042060;28;20424;-41
2022/11/28 08:30:32;;;;;;;4.88;4.40;;;9.20;99.90;;;;;;5042528;28;20726;-41
2022/11/28 08:32:58;;;;;;;5.25;4.75;;;9.20;99.90;;;;;;5043220;28;20024;-41
2022/11/28 08:35:23;;;;;;;4.80;4.40;;;9.20;99.90;;;;;;5041683;28;20021;-41
2022/11/28 08:37:49;;;;;;;4.40;4.00;;;9.20;99.90;;;;;;5036036;28;20053;-42
2022/11/28 08:40:15;;;;;;;5.35;4.20;;;9.30;99.90;;;;;;5042910;28;20040;-41
2022/11/28 08:42:40;;;;;;;4.40;3.95;;;9.30;99.90;;;;;;5041470;28;20163;-41
2022/11/28 08:45:06;;;;;;;4.38;3.92;;;9.30;99.90;;;;;;5041671;28;20047;-41
2022/11/28 08:47:32;;;;;;;5.80;5.30;;;9.30;99.90;;;;;;5041869;28;20067;-42
2022/11/28 08:49:58;;;;;;;5.65;4.85;;;9.30;99.90;;;;;;5042044;28;20021;-42
2022/11/28 08:52:24;;;;;;;5.53;4.95;;;9.30;99.90;;;;;;5041916;28;20090;-42
2022/11/28 08:54:50;;;;;;;5.57;5.07;;;9.30;99.90;;;;;;5042341;28;20895;-42
2022/11/28 08:57:15;;;;;;;5.20;4.70;;;9.30;99.90;;;;;;5041219;28;20025;-42
2022/11/28 08:59:41;;;;;;;5.18;4.57;;;9.30;99.90;;;;;;5041727;28;20440;-41
2022/11/28 09:02:10;;;;;;;5.43;4.93;;;9.30;99.90;;;;;;5041811;28;20029;-41
2022/11/28 09:04:35;;;;;;;6.65;4.90;;;9.30;99.90;;;;;;5030197;28;20876;-36
2022/11/28 09:07:01;;;;;;;4.95;4.45;;;9.40;99.90;;;;;;5041080;28;20128;-40
2022/11/28 09:09:28;;;;;;;4.57;4.15;;;9.40;99.90;;;;;;5041657;28;20032;-42
2022/11/28 09:11:53;;;;;;;5.03;4.57;;;9.40;99.90;;;;;;5041410;28;20481;-41
2022/11/28 09:14:19;;;;;;;5.35;4.68;;;9.40;99.90;;;;;;5041547;28;20024;-40
2022/11/28 09:16:44;;;;;;;5.15;4.68;;;9.40;99.90;;;;;;5040773;28;20496;-40
2022/11/28 09:19:10;;;;;;;5.47;4.97;;;9.40;99.90;;;;;;5041436;28;20123;-40
2022/11/28 09:21:36;;;;;;;7.05;4.80;;;9.40;99.90;;;;;;5041019;28;20036;-41
2022/11/28 09:24:01;;;;;;;5.65;4.50;;;9.40;99.90;;;;;;5039493;28;20028;-41
2022/11/28 09:26:28;;;;;;;4.60;4.20;;;9.50;99.90;;;;;;5041270;28;20543;-41
2022/11/28 09:28:54;;;;;;;4.78;4.38;;;9.50;99.90;;;;;;5041531;28;20045;-40
2022/11/28 09:31:20;;;;;;;4.53;4.10;;;9.50;99.90;;;;;;5041309;28;20021;-41
2022/11/28 09:33:47;;;;;;;6.45;4.25;;;9.50;99.90;;;;;;5039238;28;20542;-41
2022/11/28 09:36:17;;;;;;;4.90;4.40;;;9.50;99.90;;;;;;5035031;28;20040;-41
2022/11/28 09:38:43;;;;;;;4.70;4.30;;;9.50;99.90;;;;;;5040960;28;20615;-40
2022/11/28 09:41:26;;;;;;;4.75;4.35;;;9.50;99.90;;;;;;5041659;28;20914;-42
2022/11/28 09:43:59;;;;;;;5.00;4.53;;;9.60;99.90;;;;;;5041431;28;20025;-41
2022/11/28 09:46:30;;;;;;;4.90;4.50;;;9.60;99.90;;;;;;5040180;28;20144;-41
2022/11/28 09:49:00;;;;;;;4.68;4.28;;;9.60;99.90;;;;;;5041416;28;20032;-39
2022/11/28 09:51:44;;;;;;;4.57;4.05;;;9.70;99.90;;;;;;5042029;28;20090;-40
2022/11/28 09:54:19;;;;;;;5.10;4.60;;;9.70;99.90;;;;;;5040179;28;20037;-40
2022/11/28 09:56:48;;;;;;;5.45;4.90;;;9.70;99.90;;;;;;5040555;28;20024;-41
2022/11/28 09:59:24;;;;;;;6.10;5.50;;;9.70;99.90;;;;;;5040057;28;20029;-41
2022/11/28 10:02:15;;;;;;;5.32;4.82;;;9.70;99.90;;;;;;5041697;28;20084;-41
2022/11/28 10:04:48;;;;;;;5.47;4.97;;;9.80;99.90;;;;;;5041791;28;20021;-39
2022/11/28 10:07:32;;;;;;;5.95;5.45;;;9.80;99.90;;;;;;5041706;28;20126;-39
2022/11/28 10:10:19;;;;;;;5.07;4.65;;;9.80;99.90;;;;;;5041133;28;20054;-41
2022/11/28 10:13:15;;;;;;;4.82;4.43;;;9.80;99.90;;;;;;5041612;28;20024;-40
2022/11/28 10:15:47;;;;;;;5.30;4.80;;;9.80;99.90;;;;;;5041108;28;20903;-39
2022/11/28 10:18:40;;;;;;;4.43;4.03;;;9.70;99.90;;;;;;5040788;28;20060;-41
2022/11/28 10:21:30;;;;;;;4.43;4.03;;;9.70;99.90;;;;;;5040296;28;20072;-40
2022/11/28 10:24:00;;;;;;;4.53;4.13;;;9.70;99.90;;;;;;5041287;28;20032;-41
2022/11/28 10:26:34;;;;;;;4.35;3.97;;;9.70;99.90;;;;;;5040681;28;20072;-41
2022/11/28 10:29:09;;;;;;;4.80;4.40;;;9.70;99.90;;;;;;5040847;28;20134;-41
2022/11/28 10:31:39;;;;;;;4.82;4.43;;;9.70;99.90;;;;;;5040689;28;20060;-41
2022/11/28 10:34:13;;;;;;;4.38;3.97;;;9.70;99.90;;;;;;5040141;28;20025;-40
2022/11/28 10:36:50;;;;;;;4.80;4.20;;;9.80;99.90;;;;;;5039337;28;20586;-41
2022/11/28 10:39:15;;;;;;;4.80;4.28;;;9.80;99.90;;;;;;5040876;28;20071;-41
2022/11/28 10:42:12;;;;;;;4.60;4.15;;;9.80;99.90;;;;;;5039390;28;20384;-41
2022/11/28 10:44:47;;;;;;;4.68;4.28;;;9.80;99.90;;;;;;5020260;28;20037;-40
2022/11/28 10:47:42;;;;;;;4.05;3.75;;;9.80;99.90;;;;;;5038337;28;20567;-37
2022/11/28 10:50:45;;;;;;;4.50;4.07;;;9.80;99.90;;;;;;5039283;28;20051;-44
2022/11/28 10:53:36;;;;;;;4.57;4.17;;;9.80;99.90;;;;;;5040108;28;20033;-38
2022/11/28 10:56:21;;;;;;;5.30;4.32;;;9.90;99.90;;;;;;5039876;28;20025;-41
2022/11/28 10:59:21;;;;;;;5.35;4.85;;;9.90;99.90;;;;;;5040302;28;20040;-43
2022/11/28 11:01:49;;;;;;;4.47;4.07;;;9.90;99.90;;;;;;5040470;28;20053;-39
2022/11/28 11:04:19;;;;;;;5.38;4.88;;;10.00;99.90;;;;;;5039887;28;20017;-40
2022/11/28 11:07:11;;;;;;;5.28;4.78;;;10.00;99.90;;;;;;5043101;28;20039;-40
2022/11/28 11:09:36;;;;;;;7.65;6.25;;;10.00;99.90;;;;;;5039921;28;20088;-40
2022/11/28 11:12:05;;;;;;;6.40;5.80;;;10.00;99.90;;;;;;5043939;28;20123;-38
2022/11/28 11:14:40;;;;;;;5.72;5.13;;;10.00;99.90;;;;;;5043703;28;20021;-41
2022/11/28 11:17:06;;;;;;;6.05;5.45;;;10.10;99.90;;;;;;5043144;28;20143;-41
2022/11/28 11:19:38;;;;;;;6.78;6.10;;;10.10;99.90;;;;;;5044629;28;20231;-40
2022/11/28 11:22:19;;;;;;;4.88;4.47;;;10.10;99.90;;;;;;5043977;28;20056;-40
2022/11/28 11:25:05;;;;;;;6.63;5.50;;;10.20;99.90;;;;;;5043415;28;20021;-41
2022/11/28 11:27:31;;;;;;;5.20;4.70;;;10.20;99.90;;;;;;5043882;28;20518;-41
2022/11/28 11:29:57;;;;;;;6.82;6.18;;;10.20;99.90;;;;;;5043424;28;20025;-41
2022/11/28 11:32:28;;;;;;;6.43;5.80;;;10.20;99.90;;;;;;5043705;28;20122;-40
2022/11/28 11:34:56;;;;;;;7.40;6.65;;;10.20;99.90;;;;;;5043774;28;20037;-40
2022/11/28 11:37:34;;;;;;;7.70;6.47;;;10.20;99.90;;;;;;5043215;28;20057;-41
2022/11/28 11:40:01;;;;;;;6.72;6.03;;;10.20;99.90;;;;;;5043238;28;20519;-41
2022/11/28 11:42:31;;;;;;;6.80;6.10;;;10.20;99.90;;;;;;5043701;28;20484;-40
2022/11/28 11:45:27;;;;;;;8.10;7.07;;;10.20;99.90;;;;;;5031814;28;20586;-40
2022/11/28 11:47:53;;;;;;;7.13;6.43;;;10.20;99.90;;;;;;5043039;28;20140;-42
2022/11/28 11:50:21;;;;;;;5.63;5.00;;;10.20;99.90;;;;;;5043096;28;20017;-42
2022/11/28 11:53:00;;;;;;;7.95;7.00;;;10.20;99.90;;;;;;5042556;28;20025;-42
2022/11/28 11:55:28;;;;;;;7.32;6.53;;;10.20;99.90;;;;;;5034408;28;20033;-41
2022/11/28 11:57:56;;;;;;;8.63;7.70;;;10.20;99.90;;;;;;5043781;28;20124;-42
2022/11/28 12:00:27;;;;;;;7.28;6.40;;;10.20;99.90;;;;;;5042616;28;20035;-41
2022/11/28 12:03:23;;;;;;;6.88;6.18;;;10.20;99.90;;;;;;5043024;28;20399;-41
2022/11/28 12:05:58;;;;;;;7.97;6.55;;;10.20;99.90;;;;;;5031837;28;20033;-41
2022/11/28 12:08:46;;;;;;;7.10;6.35;;;10.30;99.90;;;;;;5043625;28;20029;-41
2022/11/28 12:11:34;;;;;;;6.35;5.72;;;10.20;99.90;;;;;;5043262;28;20029;-41
2022/11/28 12:14:19;;;;;;;7.72;6.70;;;10.30;99.90;;;;;;5042265;28;20032;-41
2022/11/28 12:16:56;;;;;;;7.40;6.60;;;10.20;99.90;;;;;;5042793;28;20610;-41
2022/11/28 12:19:49;;;;;;;7.47;6.55;;;10.30;99.90;;;;;;5043246;28;20044;-41
2022/11/28 12:22:18;;;;;;;;;;;10.30;99.90;;;;;;5043549;28;20668;-39
2022/11/28 12:25:17;;;;;;;8.98;6.70;;;10.20;99.90;;;;;;5042577;28;20007;-41
2022/11/28 12:28:10;;;;;;;7.15;6.43;;;10.20;99.90;;;;;;5022436;28;20033;-40
2022/11/28 12:31:07;;;;;;;7.93;6.75;;;10.20;99.90;;;;;;5042368;28;20109;-40
2022/11/28 12:33:52;;;;;;;7.70;6.55;;;10.20;99.90;;;;;;5043049;28;20098;-40
2022/11/28 12:36:24;;;;;;;7.20;6.50;;;10.30;99.90;;;;;;5042607;28;20865;-41
2022/11/28 12:39:16;;;;;;;7.30;6.45;;;10.30;99.90;;;;;;5042153;28;20618;-41
2022/11/28 12:41:56;;;;;;;7.20;6.43;;;10.30;99.90;;;;;;5041239;28;20028;-42
2022/11/28 12:44:37;;;;;;;8.20;6.40;;;10.30;99.90;;;;;;5043018;28;20543;-42
2022/11/28 12:47:35;;;;;;;7.30;6.60;;;10.30;99.90;;;;;;5031942;28;20158;-40
2022/11/28 12:50:12;;;;;;;7.40;6.70;;;10.40;99.90;;;;;;5042019;28;20031;-42
2022/11/28 12:52:54;;;;;;;7.82;6.85;;;10.40;99.90;;;;;;5043257;28;20021;-42
2022/11/28 12:55:34;;;;;;;7.85;7.05;;;10.40;99.90;;;;;;5041747;28;20053;-42
2022/11/28 12:58:21;;;;;;;7.22;6.53;;;10.40;99.90;;;;;;5042216;28;20392;-41
2022/11/28 13:01:13;;;;;;;7.68;6.70;;;10.40;99.90;;;;;;5042121;28;20031;-42
2022/11/28 13:03:57;;;;;;;7.22;6.50;;;10.40;99.90;;;;;;5041130;28;20033;-41
2022/11/28 13:06:45;;;;;;;7.40;6.30;;;10.40;99.90;;;;;;5041689;28;20029;-41
2022/11/28 13:09:23;;;;;;;6.63;5.93;;;10.40;99.90;;;;;;5021765;28;20041;-41
2022/11/28 13:12:11;;;;;;;7.32;6.10;;;10.50;99.90;;;;;;5042364;28;20040;-40
2022/11/28 13:14:47;;;;;;;8.13;6.22;;;10.40;99.90;;;;;;5042066;28;20063;-40
2022/11/28 13:17:57;;;;;;;6.68;5.90;;;10.40;99.90;;;;;;5040922;28;20025;-41
2022/11/28 13:20:40;;;;;;;7.18;6.47;;;10.50;99.90;;;;;;5039144;28;20085;-42
2022/11/28 13:23:12;;;;;;;;;;;10.50;99.90;;;;;;5041697;28;20025;-41
2022/11/28 13:25:48;;;;;;;7.47;5.53;;;10.50;99.90;;;;;;5041549;28;20365;-41